Rivne, Ukraine
Current Conditions -  °F | °C
As of 6:00 PM on Friday 28 Nov 2014 (Local Time) from UKLR Reporting Station
Scattered Clouds Scattered Clouds  
Wind Chill: 13°   Ceiling: Unl
Heat Index: 21°   Visibility: 6mi
Dew Point: 18°   Wind: 7mph
Humidity: 86%   Direction: 90°E
Pressure: 30.33"   Gusts: NA
Location:  50.62°N, 26.25°E
Report Text: UKLR 281500Z 09003MPS 9999 SCT016 M06/M08 Q1027 NOSIG
Loading
Personal Weather Stations






























Interactive Weather Map New forecast layout! Learn more

10-Day Weather Forecast

Advertisements
Track Severe Weather on mobile